Chili, New Mexico
Current Conditions -  °F | °C
As of 2:35 PM on Thursday 23 Oct 2014 (Local Time) from KLAM Reporting Station
Clear Clear  
Wind Chill: 64°   Ceiling: Unl
Heat Index: 64°   Visibility: 7mi
Dew Point: 32°   Wind: 0mph
Humidity: 30%   Direction: NA
Pressure: 30.3"   Gusts: NA
Location:  36.0385°N, 106.224°W
Report Text: KLAM 232035Z AUTO 00000KT 7SM CLR 18/00 A3030 RMK AO2 T01801001
Loading
Personal Weather Stations






























Interactive Weather Map
Tropical Storm Tracking
New forecast layout! Learn more

10-Day Weather Forecast

Advertisements
Track Severe Weather on mobile